sensor_id;sensor_type;location;lat;lon;timestamp;temperature;humidity
18177;DHT22;9213;50.858;3.964;2023-07-20T00:00:10;22.10;51.90
18177;DHT22;9213;50.858;3.964;2023-07-20T00:02:38;22.10;51.70
18177;DHT22;9213;50.858;3.964;2023-07-20T00:05:05;22.10;52.00
18177;DHT22;9213;50.858;3.964;2023-07-20T00:07:32;22.10;52.00
18177;DHT22;9213;50.858;3.964;2023-07-20T00:09:59;22.00;51.80
18177;DHT22;9213;50.858;3.964;2023-07-20T00:12:28;22.00;51.80
18177;DHT22;9213;50.858;3.964;2023-07-20T00:14:54;22.00;52.00
18177;DHT22;9213;50.858;3.964;2023-07-20T00:17:21;22.00;52.10
18177;DHT22;9213;50.858;3.964;2023-07-20T00:19:48;22.00;52.20
18177;DHT22;9213;50.858;3.964;2023-07-20T00:22:15;21.90;52.30
18177;DHT22;9213;50.858;3.964;2023-07-20T00:24:42;21.90;52.50
18177;DHT22;9213;50.858;3.964;2023-07-20T00:27:09;21.80;52.50
18177;DHT22;9213;50.858;3.964;2023-07-20T00:29:37;21.80;52.80
18177;DHT22;9213;50.858;3.964;2023-07-20T00:32:05;21.80;52.80
18177;DHT22;9213;50.858;3.964;2023-07-20T00:34:32;21.80;52.90
18177;DHT22;9213;50.858;3.964;2023-07-20T00:36:59;21.80;53.00
18177;DHT22;9213;50.858;3.964;2023-07-20T00:39:26;21.80;53.20
18177;DHT22;9213;50.858;3.964;2023-07-20T00:41:52;21.80;53.10
18177;DHT22;9213;50.858;3.964;2023-07-20T00:44:19;21.80;53.20
18177;DHT22;9213;50.858;3.964;2023-07-20T00:46:48;21.80;53.20
18177;DHT22;9213;50.858;3.964;2023-07-20T00:49:15;21.80;54.10
18177;DHT22;9213;50.858;3.964;2023-07-20T00:51:47;21.80;53.20
18177;DHT22;9213;50.858;3.964;2023-07-20T00:54:14;21.80;53.20
18177;DHT22;9213;50.858;3.964;2023-07-20T00:56:41;21.70;53.30
18177;DHT22;9213;50.858;3.964;2023-07-20T00:59:09;21.70;53.30
18177;DHT22;9213;50.858;3.964;2023-07-20T01:01:36;21.60;53.40
18177;DHT22;9213;50.858;3.964;2023-07-20T01:04:05;21.60;53.60
18177;DHT22;9213;50.858;3.964;2023-07-20T01:06:41;21.50;53.90
18177;DHT22;9213;50.858;3.964;2023-07-20T01:09:14;21.50;54.80
18177;DHT22;9213;50.858;3.964;2023-07-20T01:11:50;21.50;54.20
18177;DHT22;9213;50.858;3.964;2023-07-20T01:14:18;21.50;54.30
18177;DHT22;9213;50.858;3.964;2023-07-20T01:16:46;21.40;54.20
18177;DHT22;9213;50.858;3.964;2023-07-20T01:19:16;21.40;54.20
18177;DHT22;9213;50.858;3.964;2023-07-20T01:21:47;21.40;54.30
18177;DHT22;9213;50.858;3.964;2023-07-20T01:27:56;21.40;54.00
18177;DHT22;9213;50.858;3.964;2023-07-20T01:30:46;21.30;54.20
18177;DHT22;9213;50.858;3.964;2023-07-20T01:33:18;21.30;54.40
18177;DHT22;9213;50.858;3.964;2023-07-20T01:35:50;21.20;54.60
18177;DHT22;9213;50.858;3.964;2023-07-20T01:38:18;21.20;54.90
18177;DHT22;9213;50.858;3.964;2023-07-20T01:40:46;21.20;54.90
18177;DHT22;9213;50.858;3.964;2023-07-20T01:43:13;21.20;54.90
18177;DHT22;9213;50.858;3.964;2023-07-20T01:45:40;21.20;54.90
18177;DHT22;9213;50.858;3.964;2023-07-20T01:48:06;21.20;55.00
18177;DHT22;9213;50.858;3.964;2023-07-20T01:50:35;21.20;54.90
18177;DHT22;9213;50.858;3.964;2023-07-20T01:53:02;21.20;55.10
18177;DHT22;9213;50.858;3.964;2023-07-20T01:55:29;21.20;55.10
18177;DHT22;9213;50.858;3.964;2023-07-20T01:57:56;21.20;55.00
18177;DHT22;9213;50.858;3.964;2023-07-20T02:00:23;21.20;55.10
18177;DHT22;9213;50.858;3.964;2023-07-20T02:02:51;21.20;55.20
18177;DHT22;9213;50.858;3.964;2023-07-20T02:05:18;21.10;55.20
18177;DHT22;9213;50.858;3.964;2023-07-20T02:07:46;21.10;55.30
18177;DHT22;9213;50.858;3.964;2023-07-20T02:10:13;21.10;55.30
18177;DHT22;9213;50.858;3.964;2023-07-20T02:12:40;21.10;55.30
18177;DHT22;9213;50.858;3.964;2023-07-20T02:15:07;21.10;55.30
18177;DHT22;9213;50.858;3.964;2023-07-20T02:17:35;21.10;55.20
18177;DHT22;9213;50.858;3.964;2023-07-20T02:20:03;21.10;55.20
18177;DHT22;9213;50.858;3.964;2023-07-20T02:22:30;21.10;55.30
18177;DHT22;9213;50.858;3.964;2023-07-20T02:24:58;21.10;55.50
18177;DHT22;9213;50.858;3.964;2023-07-20T02:27:25;21.00;55.30
18177;DHT22;9213;50.858;3.964;2023-07-20T02:29:52;21.00;55.20
18177;DHT22;9213;50.858;3.964;2023-07-20T02:32:19;21.00;55.40
18177;DHT22;9213;50.858;3.964;2023-07-20T02:34:46;20.90;55.50
18177;DHT22;9213;50.858;3.964;2023-07-20T02:37:12;20.90;55.70
18177;DHT22;9213;50.858;3.964;2023-07-20T02:39:39;20.90;55.60
18177;DHT22;9213;50.858;3.964;2023-07-20T02:42:08;20.90;55.50
18177;DHT22;9213;50.858;3.964;2023-07-20T02:44:35;20.90;55.70
18177;DHT22;9213;50.858;3.964;2023-07-20T02:47:02;20.80;55.60
18177;DHT22;9213;50.858;3.964;2023-07-20T02:49:29;20.80;55.60
18177;DHT22;9213;50.858;3.964;2023-07-20T02:51:56;20.80;55.70
18177;DHT22;9213;50.858;3.964;2023-07-20T02:54:22;20.80;55.70
18177;DHT22;9213;50.858;3.964;2023-07-20T02:56:49;20.80;55.70
18177;DHT22;9213;50.858;3.964;2023-07-20T02:59:18;20.70;55.90
18177;DHT22;9213;50.858;3.964;2023-07-20T03:01:45;20.70;56.10
18177;DHT22;9213;50.858;3.964;2023-07-20T03:04:12;20.70;56.30
18177;DHT22;9213;50.858;3.964;2023-07-20T03:06:39;20.80;56.30
18177;DHT22;9213;50.858;3.964;2023-07-20T03:09:05;20.80;56.20
18177;DHT22;9213;50.858;3.964;2023-07-20T03:11:33;20.80;56.20
18177;DHT22;9213;50.858;3.964;2023-07-20T03:14:00;20.80;56.30
18177;DHT22;9213;50.858;3.964;2023-07-20T03:16:28;20.80;56.30
18177;DHT22;9213;50.858;3.964;2023-07-20T03:18:58;20.80;56.40
18177;DHT22;9213;50.858;3.964;2023-07-20T03:21:25;20.90;56.40
18177;DHT22;9213;50.858;3.964;2023-07-20T03:23:52;20.90;56.30
18177;DHT22;9213;50.858;3.964;2023-07-20T03:26:19;20.90;56.40
18177;DHT22;9213;50.858;3.964;2023-07-20T03:28:46;20.80;56.20
18177;DHT22;9213;50.858;3.964;2023-07-20T03:31:13;20.90;57.10
18177;DHT22;9213;50.858;3.964;2023-07-20T03:33:42;20.90;56.40
18177;DHT22;9213;50.858;3.964;2023-07-20T03:36:09;20.90;56.40
18177;DHT22;9213;50.858;3.964;2023-07-20T03:38:36;20.90;56.40
18177;DHT22;9213;50.858;3.964;2023-07-20T03:41:03;20.90;56.50
18177;DHT22;9213;50.858;3.964;2023-07-20T03:43:30;20.80;56.50
18177;DHT22;9213;50.858;3.964;2023-07-20T03:45:57;20.90;56.60
18177;DHT22;9213;50.858;3.964;2023-07-20T03:48:24;20.90;56.50
18177;DHT22;9213;50.858;3.964;2023-07-20T03:50:53;20.90;56.60
18177;DHT22;9213;50.858;3.964;2023-07-20T03:53:20;20.90;56.50
18177;DHT22;9213;50.858;3.964;2023-07-20T03:55:48;20.90;56.50
18177;DHT22;9213;50.858;3.964;2023-07-20T03:58:15;20.90;56.50
18177;DHT22;9213;50.858;3.964;2023-07-20T04:00:45;20.90;56.40
18177;DHT22;9213;50.858;3.964;2023-07-20T04:03:12;20.90;56.50
18177;DHT22;9213;50.858;3.964;2023-07-20T04:05:39;20.90;56.30
18177;DHT22;9213;50.858;3.964;2023-07-20T04:08:07;20.90;56.40
18177;DHT22;9213;50.858;3.964;2023-07-20T04:10:34;20.90;56.60
18177;DHT22;9213;50.858;3.964;2023-07-20T04:13:01;20.80;56.90
18177;DHT22;9213;50.858;3.964;2023-07-20T04:15:28;20.80;57.10
18177;DHT22;9213;50.858;3.964;2023-07-20T04:17:56;20.70;57.20
18177;DHT22;9213;50.858;3.964;2023-07-20T04:20:23;20.70;57.40
18177;DHT22;9213;50.858;3.964;2023-07-20T04:22:50;20.70;57.50
18177;DHT22;9213;50.858;3.964;2023-07-20T04:25:18;20.60;57.70
18177;DHT22;9213;50.858;3.964;2023-07-20T04:27:45;20.60;58.00
18177;DHT22;9213;50.858;3.964;2023-07-20T04:30:12;20.60;58.00
18177;DHT22;9213;50.858;3.964;2023-07-20T04:32:41;20.60;58.10
18177;DHT22;9213;50.858;3.964;2023-07-20T04:35:09;20.60;58.10
18177;DHT22;9213;50.858;3.964;2023-07-20T04:37:36;20.60;58.00
18177;DHT22;9213;50.858;3.964;2023-07-20T04:40:04;20.60;58.00
18177;DHT22;9213;50.858;3.964;2023-07-20T04:42:33;20.60;58.20
18177;DHT22;9213;50.858;3.964;2023-07-20T04:44:59;20.70;58.20
18177;DHT22;9213;50.858;3.964;2023-07-20T04:47:26;20.70;58.10
18177;DHT22;9213;50.858;3.964;2023-07-20T04:49:53;20.70;58.20
18177;DHT22;9213;50.858;3.964;2023-07-20T04:52:20;20.70;58.20
18177;DHT22;9213;50.858;3.964;2023-07-20T04:54:48;20.70;58.10
18177;DHT22;9213;50.858;3.964;2023-07-20T04:57:15;20.80;58.00
18177;DHT22;9213;50.858;3.964;2023-07-20T04:59:43;20.70;58.10
18177;DHT22;9213;50.858;3.964;2023-07-20T05:02:10;20.80;58.00
18177;DHT22;9213;50.858;3.964;2023-07-20T05:04:37;20.80;57.90
18177;DHT22;9213;50.858;3.964;2023-07-20T05:07:04;20.80;57.80
18177;DHT22;9213;50.858;3.964;2023-07-20T05:09:31;20.80;58.00
18177;DHT22;9213;50.858;3.964;2023-07-20T05:11:58;20.80;58.00
18177;DHT22;9213;50.858;3.964;2023-07-20T05:14:25;20.90;58.10
18177;DHT22;9213;50.858;3.964;2023-07-20T05:16:53;20.90;58.00
18177;DHT22;9213;50.858;3.964;2023-07-20T05:19:20;20.90;58.00
18177;DHT22;9213;50.858;3.964;2023-07-20T05:21:47;21.00;57.70
18177;DHT22;9213;50.858;3.964;2023-07-20T05:24:14;21.00;57.70
18177;DHT22;9213;50.858;3.964;2023-07-20T05:26:41;21.00;57.60
18177;DHT22;9213;50.858;3.964;2023-07-20T05:29:08;21.00;57.50
18177;DHT22;9213;50.858;3.964;2023-07-20T05:31:35;21.00;57.40
18177;DHT22;9213;50.858;3.964;2023-07-20T05:34:03;21.00;57.60
18177;DHT22;9213;50.858;3.964;2023-07-20T05:36:30;21.10;57.60
18177;DHT22;9213;50.858;3.964;2023-07-20T05:38:57;21.10;57.40
18177;DHT22;9213;50.858;3.964;2023-07-20T05:41:24;21.10;57.30
18177;DHT22;9213;50.858;3.964;2023-07-20T05:43:51;21.10;57.50
18177;DHT22;9213;50.858;3.964;2023-07-20T05:46:18;21.10;57.70
18177;DHT22;9213;50.858;3.964;2023-07-20T05:48:45;21.10;57.70
18177;DHT22;9213;50.858;3.964;2023-07-20T05:51:13;21.10;57.60
18177;DHT22;9213;50.858;3.964;2023-07-20T05:53:41;21.10;57.60
18177;DHT22;9213;50.858;3.964;2023-07-20T05:56:08;21.20;57.60
18177;DHT22;9213;50.858;3.964;2023-07-20T05:58:36;21.20;57.60
18177;DHT22;9213;50.858;3.964;2023-07-20T06:01:03;21.30;57.60
18177;DHT22;9213;50.858;3.964;2023-07-20T06:03:31;21.30;57.60
18177;DHT22;9213;50.858;3.964;2023-07-20T06:05:59;21.40;57.30
18177;DHT22;9213;50.858;3.964;2023-07-20T06:08:28;21.40;57.00
18177;DHT22;9213;50.858;3.964;2023-07-20T06:10:55;21.50;56.80
18177;DHT22;9213;50.858;3.964;2023-07-20T06:13:22;21.60;56.60
18177;DHT22;9213;50.858;3.964;2023-07-20T06:15:50;21.80;57.10
18177;DHT22;9213;50.858;3.964;2023-07-20T06:18:17;21.90;55.90
18177;DHT22;9213;50.858;3.964;2023-07-20T06:20:49;22.10;55.60
18177;DHT22;9213;50.858;3.964;2023-07-20T06:23:16;22.30;55.20
18177;DHT22;9213;50.858;3.964;2023-07-20T06:25:44;22.40;54.70
18177;DHT22;9213;50.858;3.964;2023-07-20T06:28:11;22.60;54.10
18177;DHT22;9213;50.858;3.964;2023-07-20T06:30:38;22.70;53.30
18177;DHT22;9213;50.858;3.964;2023-07-20T06:33:05;22.90;52.80
18177;DHT22;9213;50.858;3.964;2023-07-20T06:35:33;22.90;52.20
18177;DHT22;9213;50.858;3.964;2023-07-20T06:38:00;23.10;52.30
18177;DHT22;9213;50.858;3.964;2023-07-20T06:40:29;23.20;52.00
18177;DHT22;9213;50.858;3.964;2023-07-20T06:42:57;23.40;51.90
18177;DHT22;9213;50.858;3.964;2023-07-20T06:45:24;23.70;51.50
18177;DHT22;9213;50.858;3.964;2023-07-20T06:47:51;24.10;50.10
18177;DHT22;9213;50.858;3.964;2023-07-20T06:50:18;24.60;48.60
18177;DHT22;9213;50.858;3.964;2023-07-20T06:52:45;25.30;46.90
18177;DHT22;9213;50.858;3.964;2023-07-20T06:55:13;26.10;45.50
18177;DHT22;9213;50.858;3.964;2023-07-20T06:57:40;26.60;43.60
18177;DHT22;9213;50.858;3.964;2023-07-20T07:00:10;26.80;42.20
18177;DHT22;9213;50.858;3.964;2023-07-20T07:02:38;27.00;41.50
18177;DHT22;9213;50.858;3.964;2023-07-20T07:05:05;27.00;40.80
18177;DHT22;9213;50.858;3.964;2023-07-20T07:07:32;26.90;40.60
18177;DHT22;9213;50.858;3.964;2023-07-20T07:10:00;26.80;40.70
18177;DHT22;9213;50.858;3.964;2023-07-20T07:12:29;26.90;40.40
18177;DHT22;9213;50.858;3.964;2023-07-20T07:14:56;27.20;40.10
18177;DHT22;9213;50.858;3.964;2023-07-20T07:17:24;27.60;39.50
18177;DHT22;9213;50.858;3.964;2023-07-20T07:19:52;28.00;39.20
18177;DHT22;9213;50.858;3.964;2023-07-20T07:22:20;28.90;36.80
18177;DHT22;9213;50.858;3.964;2023-07-20T07:24:47;29.20;35.90
18177;DHT22;9213;50.858;3.964;2023-07-20T07:27:14;29.00;35.60
18177;DHT22;9213;50.858;3.964;2023-07-20T07:29:42;28.70;35.60
18177;DHT22;9213;50.858;3.964;2023-07-20T07:32:10;28.20;35.90
18177;DHT22;9213;50.858;3.964;2023-07-20T07:34:39;27.90;36.10
18177;DHT22;9213;50.858;3.964;2023-07-20T07:37:05;27.70;36.80
18177;DHT22;9213;50.858;3.964;2023-07-20T07:39:32;27.80;36.20
18177;DHT22;9213;50.858;3.964;2023-07-20T07:42:00;27.90;35.80
18177;DHT22;9213;50.858;3.964;2023-07-20T07:44:27;27.80;35.60
18177;DHT22;9213;50.858;3.964;2023-07-20T07:46:53;27.70;36.20
18177;DHT22;9213;50.858;3.964;2023-07-20T07:49:20;27.40;36.60
18177;DHT22;9213;50.858;3.964;2023-07-20T07:51:49;27.10;37.30
18177;DHT22;9213;50.858;3.964;2023-07-20T07:54:16;26.80;37.60
18177;DHT22;9213;50.858;3.964;2023-07-20T07:56:42;26.60;38.20
18177;DHT22;9213;50.858;3.964;2023-07-20T07:59:10;26.30;39.30
18177;DHT22;9213;50.858;3.964;2023-07-20T08:01:37;26.20;40.20
18177;DHT22;9213;50.858;3.964;2023-07-20T08:04:04;26.10;40.20
18177;DHT22;9213;50.858;3.964;2023-07-20T08:06:31;26.10;40.60
18177;DHT22;9213;50.858;3.964;2023-07-20T08:08:59;26.20;40.90
18177;DHT22;9213;50.858;3.964;2023-07-20T08:11:26;26.50;40.80
18177;DHT22;9213;50.858;3.964;2023-07-20T08:13:53;27.10;40.00
18177;DHT22;9213;50.858;3.964;2023-07-20T08:16:20;28.00;38.00
18177;DHT22;9213;50.858;3.964;2023-07-20T08:18:46;29.00;35.80
18177;DHT22;9213;50.858;3.964;2023-07-20T08:21:13;29.70;33.80
18177;DHT22;9213;50.858;3.964;2023-07-20T08:23:40;30.00;32.80
18177;DHT22;9213;50.858;3.964;2023-07-20T08:26:08;30.00;31.90
18177;DHT22;9213;50.858;3.964;2023-07-20T08:28:35;29.80;31.50
18177;DHT22;9213;50.858;3.964;2023-07-20T08:31:03;29.60;32.20
18177;DHT22;9213;50.858;3.964;2023-07-20T08:33:32;29.40;32.90
18177;DHT22;9213;50.858;3.964;2023-07-20T08:35:59;29.30;33.60
18177;DHT22;9213;50.858;3.964;2023-07-20T08:38:27;29.40;33.10
18177;DHT22;9213;50.858;3.964;2023-07-20T08:40:54;29.40;33.10
18177;DHT22;9213;50.858;3.964;2023-07-20T08:43:23;29.50;32.70
18177;DHT22;9213;50.858;3.964;2023-07-20T08:45:52;29.60;33.10
18177;DHT22;9213;50.858;3.964;2023-07-20T08:48:20;30.00;33.00
18177;DHT22;9213;50.858;3.964;2023-07-20T08:50:48;30.50;31.70
18177;DHT22;9213;50.858;3.964;2023-07-20T08:53:16;31.20;30.00
18177;DHT22;9213;50.858;3.964;2023-07-20T08:55:45;32.20;28.90
18177;DHT22;9213;50.858;3.964;2023-07-20T08:58:13;33.30;27.80
18177;DHT22;9213;50.858;3.964;2023-07-20T09:00:41;34.40;26.00
18177;DHT22;9213;50.858;3.964;2023-07-20T09:03:09;35.40;24.50
18177;DHT22;9213;50.858;3.964;2023-07-20T09:05:37;36.10;23.30
18177;DHT22;9213;50.858;3.964;2023-07-20T09:08:04;36.30;22.10
18177;DHT22;9213;50.858;3.964;2023-07-20T09:10:31;36.10;22.40
18177;DHT22;9213;50.858;3.964;2023-07-20T09:12:58;35.60;21.90
18177;DHT22;9213;50.858;3.964;2023-07-20T09:15:25;35.00;23.10
18177;DHT22;9213;50.858;3.964;2023-07-20T09:17:54;34.40;23.50
18177;DHT22;9213;50.858;3.964;2023-07-20T09:20:21;33.90;24.50
18177;DHT22;9213;50.858;3.964;2023-07-20T09:22:47;33.60;24.90
18177;DHT22;9213;50.858;3.964;2023-07-20T09:25:16;33.80;24.60
18177;DHT22;9213;50.858;3.964;2023-07-20T09:27:45;34.30;24.20
18177;DHT22;9213;50.858;3.964;2023-07-20T09:30:13;34.80;22.80
18177;DHT22;9213;50.858;3.964;2023-07-20T09:32:42;35.40;22.60
18177;DHT22;9213;50.858;3.964;2023-07-20T09:35:17;35.80;21.60
18177;DHT22;9213;50.858;3.964;2023-07-20T09:37:47;35.90;21.10
18177;DHT22;9213;50.858;3.964;2023-07-20T09:40:18;35.60;21.40
18177;DHT22;9213;50.858;3.964;2023-07-20T09:42:46;35.10;22.70
18177;DHT22;9213;50.858;3.964;2023-07-20T09:45:13;34.70;23.30
18177;DHT22;9213;50.858;3.964;2023-07-20T09:47:40;34.30;23.70
18177;DHT22;9213;50.858;3.964;2023-07-20T09:50:08;34.00;24.30
18177;DHT22;9213;50.858;3.964;2023-07-20T09:52:41;33.80;23.50
18177;DHT22;9213;50.858;3.964;2023-07-20T09:55:10;33.70;24.00
18177;DHT22;9213;50.858;3.964;2023-07-20T09:57:38;33.60;23.80
18177;DHT22;9213;50.858;3.964;2023-07-20T10:00:08;33.40;24.10
18177;DHT22;9213;50.858;3.964;2023-07-20T10:02:42;33.30;24.30
18177;DHT22;9213;50.858;3.964;2023-07-20T10:05:11;33.20;24.60
18177;DHT22;9213;50.858;3.964;2023-07-20T10:07:46;33.10;24.40
18177;DHT22;9213;50.858;3.964;2023-07-20T10:10:14;33.00;24.80
18177;DHT22;9213;50.858;3.964;2023-07-20T10:12:43;32.90;24.70
18177;DHT22;9213;50.858;3.964;2023-07-20T10:15:15;32.80;25.10
18177;DHT22;9213;50.858;3.964;2023-07-20T10:17:57;32.80;24.90
18177;DHT22;9213;50.858;3.964;2023-07-20T10:20:27;32.70;24.80
18177;DHT22;9213;50.858;3.964;2023-07-20T10:22:57;32.70;25.40
18177;DHT22;9213;50.858;3.964;2023-07-20T10:25:24;32.80;25.10
18177;DHT22;9213;50.858;3.964;2023-07-20T10:27:51;32.80;24.60
18177;DHT22;9213;50.858;3.964;2023-07-20T10:30:18;32.80;24.20
18177;DHT22;9213;50.858;3.964;2023-07-20T10:32:47;32.70;24.50
18177;DHT22;9213;50.858;3.964;2023-07-20T10:35:15;32.60;24.90
18177;DHT22;9213;50.858;3.964;2023-07-20T10:38:04;32.50;25.30
18177;DHT22;9213;50.858;3.964;2023-07-20T10:40:32;32.50;25.80
18177;DHT22;9213;50.858;3.964;2023-07-20T10:43:01;32.20;25.90
18177;DHT22;9213;50.858;3.964;2023-07-20T10:45:39;32.10;26.10
18177;DHT22;9213;50.858;3.964;2023-07-20T10:48:12;32.10;26.20
18177;DHT22;9213;50.858;3.964;2023-07-20T10:50:40;32.00;25.90
18177;DHT22;9213;50.858;3.964;2023-07-20T10:53:13;32.00;25.70
18177;DHT22;9213;50.858;3.964;2023-07-20T10:55:41;32.10;26.00
18177;DHT22;9213;50.858;3.964;2023-07-20T10:58:10;32.00;26.00
18177;DHT22;9213;50.858;3.964;2023-07-20T11:00:38;31.90;25.40
18177;DHT22;9213;50.858;3.964;2023-07-20T11:03:29;31.80;26.30
18177;DHT22;9213;50.858;3.964;2023-07-20T11:05:57;31.80;26.50
18177;DHT22;9213;50.858;3.964;2023-07-20T11:08:41;31.70;26.60
18177;DHT22;9213;50.858;3.964;2023-07-20T11:11:21;31.70;26.70
18177;DHT22;9213;50.858;3.964;2023-07-20T11:13:56;31.50;26.40
18177;DHT22;9213;50.858;3.964;2023-07-20T11:16:38;31.40;26.70
18177;DHT22;9213;50.858;3.964;2023-07-20T11:19:06;31.20;27.40
18177;DHT22;9213;50.858;3.964;2023-07-20T11:21:43;31.00;28.50
18177;DHT22;9213;50.858;3.964;2023-07-20T11:24:12;30.90;27.90
18177;DHT22;9213;50.858;3.964;2023-07-20T11:26:43;30.80;27.80
18177;DHT22;9213;50.858;3.964;2023-07-20T11:29:11;30.80;27.80
18177;DHT22;9213;50.858;3.964;2023-07-20T11:31:38;30.80;28.50
18177;DHT22;9213;50.858;3.964;2023-07-20T11:34:06;30.80;28.10
18177;DHT22;9213;50.858;3.964;2023-07-20T11:36:33;30.90;27.60
18177;DHT22;9213;50.858;3.964;2023-07-20T11:39:00;31.00;28.10
18177;DHT22;9213;50.858;3.964;2023-07-20T11:41:31;31.00;27.70
18177;DHT22;9213;50.858;3.964;2023-07-20T11:43:59;31.00;27.70
18177;DHT22;9213;50.858;3.964;2023-07-20T11:46:27;30.90;27.30
18177;DHT22;9213;50.858;3.964;2023-07-20T11:48:58;30.80;27.50
18177;DHT22;9213;50.858;3.964;2023-07-20T11:51:27;30.70;28.30
18177;DHT22;9213;50.858;3.964;2023-07-20T11:53:54;30.40;28.90
18177;DHT22;9213;50.858;3.964;2023-07-20T11:56:22;30.20;29.30
18177;DHT22;9213;50.858;3.964;2023-07-20T11:58:54;30.00;30.00
18177;DHT22;9213;50.858;3.964;2023-07-20T12:01:23;29.80;30.50
18177;DHT22;9213;50.858;3.964;2023-07-20T12:03:51;29.50;31.50
18177;DHT22;9213;50.858;3.964;2023-07-20T12:06:18;29.20;32.40
18177;DHT22;9213;50.858;3.964;2023-07-20T12:08:49;28.80;33.00
18177;DHT22;9213;50.858;3.964;2023-07-20T12:11:31;28.60;33.70
18177;DHT22;9213;50.858;3.964;2023-07-20T12:13:59;28.50;34.70
18177;DHT22;9213;50.858;3.964;2023-07-20T12:16:27;28.20;35.00
18177;DHT22;9213;50.858;3.964;2023-07-20T12:18:59;28.00;35.30
18177;DHT22;9213;50.858;3.964;2023-07-20T12:21:27;28.00;35.90
18177;DHT22;9213;50.858;3.964;2023-07-20T12:23:56;27.80;36.10
18177;DHT22;9213;50.858;3.964;2023-07-20T12:26:23;27.80;36.20
18177;DHT22;9213;50.858;3.964;2023-07-20T12:28:51;27.80;36.10
18177;DHT22;9213;50.858;3.964;2023-07-20T12:31:19;27.70;36.10
18177;DHT22;9213;50.858;3.964;2023-07-20T12:33:46;27.70;36.20
18177;DHT22;9213;50.858;3.964;2023-07-20T12:36:13;27.70;35.80
18177;DHT22;9213;50.858;3.964;2023-07-20T12:38:41;27.70;35.60
18177;DHT22;9213;50.858;3.964;2023-07-20T12:41:10;27.80;35.80
18177;DHT22;9213;50.858;3.964;2023-07-20T12:43:39;27.70;35.90
18177;DHT22;9213;50.858;3.964;2023-07-20T12:46:06;27.70;36.40
18177;DHT22;9213;50.858;3.964;2023-07-20T12:48:35;27.50;36.80
18177;DHT22;9213;50.858;3.964;2023-07-20T12:51:02;27.40;38.30
18177;DHT22;9213;50.858;3.964;2023-07-20T12:53:31;27.30;38.60
18177;DHT22;9213;50.858;3.964;2023-07-20T12:55:58;27.10;38.70
18177;DHT22;9213;50.858;3.964;2023-07-20T12:58:25;26.80;39.30
18177;DHT22;9213;50.858;3.964;2023-07-20T13:00:52;26.50;40.60
18177;DHT22;9213;50.858;3.964;2023-07-20T13:03:19;26.20;42.80
18177;DHT22;9213;50.858;3.964;2023-07-20T13:05:48;25.90;42.50
18177;DHT22;9213;50.858;3.964;2023-07-20T13:08:15;25.80;43.20
18177;DHT22;9213;50.858;3.964;2023-07-20T13:10:43;25.60;43.30
18177;DHT22;9213;50.858;3.964;2023-07-20T13:13:10;25.50;44.00
18177;DHT22;9213;50.858;3.964;2023-07-20T13:15:42;25.50;44.00
18177;DHT22;9213;50.858;3.964;2023-07-20T13:18:09;25.60;44.60
18177;DHT22;9213;50.858;3.964;2023-07-20T13:20:36;25.60;45.40
18177;DHT22;9213;50.858;3.964;2023-07-20T13:23:04;25.70;44.30
18177;DHT22;9213;50.858;3.964;2023-07-20T13:25:31;25.80;44.60
18177;DHT22;9213;50.858;3.964;2023-07-20T13:27:58;25.90;43.50
18177;DHT22;9213;50.858;3.964;2023-07-20T13:30:25;26.00;44.60
18177;DHT22;9213;50.858;3.964;2023-07-20T13:32:52;26.10;44.30
18177;DHT22;9213;50.858;3.964;2023-07-20T13:35:19;26.30;43.20
18177;DHT22;9213;50.858;3.964;2023-07-20T13:37:46;26.60;42.80
18177;DHT22;9213;50.858;3.964;2023-07-20T13:40:15;26.90;41.80
18177;DHT22;9213;50.858;3.964;2023-07-20T13:42:44;27.20;42.10
18177;DHT22;9213;50.858;3.964;2023-07-20T13:45:11;27.30;40.00
18177;DHT22;9213;50.858;3.964;2023-07-20T13:47:38;27.40;40.10
18177;DHT22;9213;50.858;3.964;2023-07-20T13:50:06;27.40;39.60
18177;DHT22;9213;50.858;3.964;2023-07-20T13:52:33;27.40;39.30
18177;DHT22;9213;50.858;3.964;2023-07-20T13:55:00;27.30;38.60
18177;DHT22;9213;50.858;3.964;2023-07-20T13:57:29;27.30;39.10
18177;DHT22;9213;50.858;3.964;2023-07-20T13:59:56;27.20;39.20
18177;DHT22;9213;50.858;3.964;2023-07-20T14:02:22;27.20;39.20
18177;DHT22;9213;50.858;3.964;2023-07-20T14:04:49;27.20;39.00
18177;DHT22;9213;50.858;3.964;2023-07-20T14:07:16;27.20;38.60
18177;DHT22;9213;50.858;3.964;2023-07-20T14:09:43;27.20;38.20
18177;DHT22;9213;50.858;3.964;2023-07-20T14:12:10;27.30;38.10
18177;DHT22;9213;50.858;3.964;2023-07-20T14:14:41;27.40;38.60
18177;DHT22;9213;50.858;3.964;2023-07-20T14:17:07;27.50;38.20
18177;DHT22;9213;50.858;3.964;2023-07-20T14:19:36;27.60;37.10
18177;DHT22;9213;50.858;3.964;2023-07-20T14:22:04;27.70;37.30
18177;DHT22;9213;50.858;3.964;2023-07-20T14:24:31;27.80;36.30
18177;DHT22;9213;50.858;3.964;2023-07-20T14:26:58;27.80;36.20
18177;DHT22;9213;50.858;3.964;2023-07-20T14:29:26;27.70;36.00
18177;DHT22;9213;50.858;3.964;2023-07-20T14:31:54;27.70;35.80
18177;DHT22;9213;50.858;3.964;2023-07-20T14:34:21;27.60;36.20
18177;DHT22;9213;50.858;3.964;2023-07-20T14:36:48;27.50;36.70
18177;DHT22;9213;50.858;3.964;2023-07-20T14:39:16;27.40;36.80
18177;DHT22;9213;50.858;3.964;2023-07-20T14:41:43;27.20;37.30
18177;DHT22;9213;50.858;3.964;2023-07-20T14:44:10;27.10;38.10
18177;DHT22;9213;50.858;3.964;2023-07-20T14:46:37;26.80;38.30
18177;DHT22;9213;50.858;3.964;2023-07-20T14:49:05;26.60;39.50
18177;DHT22;9213;50.858;3.964;2023-07-20T14:51:32;26.40;40.50
18177;DHT22;9213;50.858;3.964;2023-07-20T14:54:01;26.20;41.10
18177;DHT22;9213;50.858;3.964;2023-07-20T14:56:28;25.90;41.90
18177;DHT22;9213;50.858;3.964;2023-07-20T14:58:55;25.60;42.70
18177;DHT22;9213;50.858;3.964;2023-07-20T15:01:23;25.20;43.70
18177;DHT22;9213;50.858;3.964;2023-07-20T15:03:50;24.80;45.10
18177;DHT22;9213;50.858;3.964;2023-07-20T15:06:20;24.40;45.70
18177;DHT22;9213;50.858;3.964;2023-07-20T15:08:47;24.10;47.00
18177;DHT22;9213;50.858;3.964;2023-07-20T15:11:14;23.80;47.80
18177;DHT22;9213;50.858;3.964;2023-07-20T15:13:41;23.60;48.50
18177;DHT22;9213;50.858;3.964;2023-07-20T15:16:08;23.40;48.90
18177;DHT22;9213;50.858;3.964;2023-07-20T15:18:36;23.30;49.70
18177;DHT22;9213;50.858;3.964;2023-07-20T15:21:03;23.20;50.30
18177;DHT22;9213;50.858;3.964;2023-07-20T15:23:31;23.00;50.80
18177;DHT22;9213;50.858;3.964;2023-07-20T15:25:58;22.90;52.00
18177;DHT22;9213;50.858;3.964;2023-07-20T15:28:25;22.80;52.60
18177;DHT22;9213;50.858;3.964;2023-07-20T15:30:59;22.80;52.60
18177;DHT22;9213;50.858;3.964;2023-07-20T15:33:26;22.80;53.10
18177;DHT22;9213;50.858;3.964;2023-07-20T15:35:53;22.70;54.00
18177;DHT22;9213;50.858;3.964;2023-07-20T15:38:20;22.60;54.60
18177;DHT22;9213;50.858;3.964;2023-07-20T15:40:48;22.60;54.40
18177;DHT22;9213;50.858;3.964;2023-07-20T15:43:15;22.70;54.90
18177;DHT22;9213;50.858;3.964;2023-07-20T15:45:46;22.70;54.70
18177;DHT22;9213;50.858;3.964;2023-07-20T15:48:14;22.70;54.50
18177;DHT22;9213;50.858;3.964;2023-07-20T15:50:42;22.60;54.80
18177;DHT22;9213;50.858;3.964;2023-07-20T15:53:09;22.60;55.30